createdAt,value
2023-03-21T00:01:44.369Z,101123.53
2023-03-21T00:06:41.175Z,101084.53
2023-03-21T00:11:37.942Z,101128.53
2023-03-21T00:16:35.735Z,101136.63
2023-03-21T00:21:55.317Z,101105.50
2023-03-21T00:27:00.210Z,101121.66
2023-03-21T00:32:08.142Z,101106.44
2023-03-21T00:37:06.741Z,101045.72
2023-03-21T00:42:03.695Z,101094.94
2023-03-21T00:47:07.466Z,101132.19
2023-03-21T00:52:17.054Z,101122.50
2023-03-21T00:57:20.158Z,101021.72
2023-03-21T01:02:22.351Z,101079.94
2023-03-21T01:07:20.665Z,101098.25
2023-03-21T01:12:17.752Z,101031.84
2023-03-21T01:17:14.799Z,101075.03
2023-03-21T01:22:11.748Z,101015.31
2023-03-21T01:27:09.258Z,101007.44
2023-03-21T01:32:06.543Z,101056.09
2023-03-21T01:37:03.570Z,101005.69
2023-03-21T01:42:05.008Z,101052.59
2023-03-21T01:47:11.853Z,101044.63
2023-03-21T01:52:33.349Z,101038.66
2023-03-21T01:57:45.242Z,101046.78
2023-03-21T02:02:52.151Z,101025.09
2023-03-21T02:08:04.046Z,100980.06
2023-03-21T02:13:08.970Z,100954.19
2023-03-21T02:18:16.993Z,101011.53
2023-03-21T02:23:44.285Z,100950.31
2023-03-21T02:28:47.068Z,100993.25
2023-03-21T02:34:12.699Z,101010.88
2023-03-21T02:39:18.602Z,100965.78
2023-03-21T02:44:20.975Z,101052.63
2023-03-21T02:49:23.201Z,101032.50
2023-03-21T02:54:38.358Z,101042.50
2023-03-21T02:59:53.233Z,101039.91
2023-03-21T03:04:56.994Z,101068.38
2023-03-21T03:10:17.051Z,101064.19
2023-03-21T03:15:21.541Z,101074.75
2023-03-21T03:20:26.541Z,101006.88
2023-03-21T03:25:41.534Z,100989.69
2023-03-21T03:31:05.516Z,100997.16
2023-03-21T03:36:21.575Z,101019.34
2023-03-21T03:41:27.054Z,101008.25
2023-03-21T03:46:32.917Z,101061.69
2023-03-21T03:51:35.907Z,101066.53
2023-03-21T03:56:57.819Z,101071.34
2023-03-21T04:01:54.959Z,101070.00
2023-03-21T04:06:52.805Z,101077.66
2023-03-21T04:11:52.513Z,101106.41
2023-03-21T04:16:51.596Z,101095.19
2023-03-21T04:21:48.533Z,101070.94
2023-03-21T04:26:47.831Z,101082.69
2023-03-21T04:31:58.267Z,101033.63
2023-03-21T04:36:56.160Z,101083.94
2023-03-21T04:41:53.257Z,101071.50
2023-03-21T04:46:51.164Z,101105.16
2023-03-21T04:51:49.312Z,101092.78
2023-03-21T04:56:51.459Z,101059.59
2023-03-21T05:01:49.622Z,101122.44
2023-03-21T05:06:46.538Z,101079.06
2023-03-21T05:11:46.875Z,101081.00
2023-03-21T05:16:52.498Z,101072.31
2023-03-21T05:21:52.829Z,101110.97
2023-03-21T05:26:55.519Z,101114.91
2023-03-21T05:31:56.177Z,101106.13
2023-03-21T05:36:54.347Z,101075.97
2023-03-21T05:41:54.962Z,101101.28
2023-03-21T05:46:54.319Z,100971.28
2023-03-21T05:52:03.912Z,101092.28
2023-03-21T05:57:03.610Z,100984.25
2023-03-21T06:02:25.976Z,101092.22
2023-03-21T06:07:24.826Z,101026.31
2023-03-21T06:12:22.521Z,101091.09
2023-03-21T06:17:38.822Z,101021.19
2023-03-21T06:22:39.626Z,101103.03
2023-03-21T06:27:37.398Z,101038.13
2023-03-21T06:32:39.377Z,101089.75
2023-03-21T06:37:44.897Z,101080.00
2023-03-21T06:42:50.969Z,101053.22
2023-03-21T06:47:51.777Z,101128.38
2023-03-21T06:53:08.434Z,101116.25
2023-03-21T06:58:27.513Z,101022.09
2023-03-21T07:03:33.209Z,101114.31
2023-03-21T07:08:31.525Z,101119.97
2023-03-21T07:13:29.279Z,101114.72
2023-03-21T07:18:33.318Z,101065.03
2023-03-21T07:23:32.380Z,101002.72
2023-03-21T07:28:31.593Z,101104.00
2023-03-21T07:33:28.751Z,101092.00
2023-03-21T07:38:34.495Z,101012.72
2023-03-21T07:43:39.929Z,101099.84
2023-03-21T07:48:40.251Z,101094.81
2023-03-21T07:53:43.313Z,101035.88
2023-03-21T07:58:45.421Z,101066.16
2023-03-21T08:03:58.818Z,101056.81
2023-03-21T08:08:58.800Z,101071.41
2023-03-21T08:13:57.719Z,101017.72
2023-03-21T08:19:04.820Z,101098.19
2023-03-21T08:24:15.390Z,101036.41
2023-03-21T08:29:13.952Z,101069.41
2023-03-21T08:34:19.226Z,101041.03
2023-03-21T08:39:16.383Z,101017.31
2023-03-21T08:44:16.927Z,101091.84
2023-03-21T08:49:13.973Z,101064.50
2023-03-21T08:54:22.285Z,101053.84
2023-03-21T08:59:20.976Z,101099.09
2023-03-21T09:04:32.137Z,101071.78
2023-03-21T09:09:29.338Z,101021.66
2023-03-21T09:14:28.998Z,101071.22
2023-03-21T09:19:28.674Z,101072.31
2023-03-21T09:24:27.593Z,101016.75
2023-03-21T09:29:27.359Z,101066.88
2023-03-21T09:34:28.324Z,100954.28
2023-03-21T09:39:50.066Z,101017.63
2023-03-21T09:45:02.184Z,101067.41
2023-03-21T09:50:14.194Z,101001.00
2023-03-21T09:55:19.369Z,101004.88
2023-03-21T10:00:27.371Z,101021.25
2023-03-21T10:05:28.002Z,101051.88
2023-03-21T10:10:28.355Z,101049.56
2023-03-21T10:15:26.747Z,101065.94
2023-03-21T10:20:29.093Z,101086.09
2023-03-21T10:25:31.075Z,101082.66
2023-03-21T10:30:40.052Z,101009.59
2023-03-21T10:35:39.736Z,101025.66
2023-03-21T10:40:39.987Z,101058.16
2023-03-21T10:45:37.145Z,101062.63
2023-03-21T10:50:35.871Z,100989.22
2023-03-21T10:55:35.369Z,101002.97
2023-03-21T11:00:37.407Z,101021.84
2023-03-21T11:05:37.273Z,101051.56
2023-03-21T11:10:37.413Z,100949.69
2023-03-21T11:15:42.190Z,101005.44
2023-03-21T11:20:51.853Z,100992.72
2023-03-21T11:25:55.226Z,100984.63
2023-03-21T11:30:55.015Z,101012.66
2023-03-21T11:36:03.053Z,101015.69
2023-03-21T11:41:02.471Z,101017.00
2023-03-21T11:46:05.490Z,101000.22
2023-03-21T11:51:10.691Z,100955.00
2023-03-21T11:56:23.259Z,101002.22
2023-03-21T12:01:27.363Z,101004.34
2023-03-21T12:06:33.865Z,101003.06
2023-03-21T12:11:40.241Z,100984.78
2023-03-21T12:16:56.595Z,100949.22
2023-03-21T12:22:05.400Z,100956.84
2023-03-21T12:27:15.044Z,100943.34
2023-03-21T12:32:40.735Z,100965.28
2023-03-21T12:37:47.626Z,100949.00
2023-03-21T12:43:22.319Z,100910.19
2023-03-21T12:48:27.579Z,100803.22
2023-03-21T12:53:35.541Z,100898.41
2023-03-21T12:58:41.059Z,100865.97
2023-03-21T13:03:44.737Z,100817.88
2023-03-21T13:08:48.385Z,100797.50
2023-03-21T13:13:51.226Z,100860.63
2023-03-21T13:18:58.894Z,100880.78
2023-03-21T13:24:00.729Z,100847.94
2023-03-21T13:29:00.497Z,100904.78
2023-03-21T13:33:59.796Z,100878.88
2023-03-21T13:39:00.692Z,100886.03
2023-03-21T13:44:15.987Z,100868.25
2023-03-21T13:49:28.634Z,100863.44
2023-03-21T13:54:52.602Z,100875.16
2023-03-21T14:00:10.541Z,100884.09
2023-03-21T14:05:20.086Z,100875.44
2023-03-21T14:10:22.014Z,100872.59
2023-03-21T14:15:22.267Z,100866.59
2023-03-21T14:20:23.496Z,100846.16
2023-03-21T14:25:23.254Z,100861.53
2023-03-21T14:30:27.235Z,100765.84
2023-03-21T14:35:28.704Z,100820.69
2023-03-21T14:40:30.639Z,100779.19
2023-03-21T14:45:34.398Z,100775.28
2023-03-21T14:50:39.651Z,100767.81
2023-03-21T14:55:41.647Z,100814.41
2023-03-21T15:00:49.495Z,100735.97
2023-03-21T15:05:48.222Z,100792.94
2023-03-21T15:11:06.271Z,100797.19
2023-03-21T15:16:08.926Z,100762.06
2023-03-21T15:21:10.217Z,100788.50
2023-03-21T15:26:07.315Z,100692.63
2023-03-21T15:31:06.710Z,100787.78
2023-03-21T15:36:09.636Z,100792.59
2023-03-21T15:41:25.436Z,100803.81
2023-03-21T15:46:38.830Z,100778.59
2023-03-21T15:51:36.169Z,100767.56
2023-03-21T15:56:34.409Z,100823.91
2023-03-21T16:01:38.266Z,100834.88
2023-03-21T16:06:37.713Z,100736.81
2023-03-21T16:11:39.436Z,100790.59
2023-03-21T16:16:37.878Z,100807.53
2023-03-21T16:21:37.754Z,100798.31
2023-03-21T16:26:37.038Z,100843.16
2023-03-21T16:31:36.659Z,100823.41
2023-03-21T16:36:36.580Z,100853.38
2023-03-21T16:41:36.392Z,100873.59
2023-03-21T16:46:33.149Z,100765.44
2023-03-21T16:51:32.925Z,100807.72
2023-03-21T16:56:36.132Z,100873.69
2023-03-21T17:01:37.736Z,100805.31
2023-03-21T17:06:48.891Z,100887.50
2023-03-21T17:11:49.206Z,100785.75
2023-03-21T17:16:46.392Z,100819.66
2023-03-21T17:21:48.617Z,100887.94
2023-03-21T17:26:52.088Z,100849.97
2023-03-21T17:31:53.282Z,100897.59
2023-03-21T17:36:50.682Z,100887.22
2023-03-21T17:41:49.122Z,100853.19
2023-03-21T17:46:51.167Z,100789.75
2023-03-21T17:51:51.414Z,100766.22
2023-03-21T17:56:55.009Z,100854.56
2023-03-21T18:01:56.899Z,100908.19
2023-03-21T18:06:58.784Z,100866.97
2023-03-21T18:11:55.795Z,100908.50
2023-03-21T18:16:53.683Z,100859.31
2023-03-21T18:21:50.790Z,100848.06
2023-03-21T18:26:51.314Z,100909.66
2023-03-21T18:32:06.331Z,100877.50
2023-03-21T18:37:07.622Z,100865.63
2023-03-21T18:42:05.222Z,100868.28
2023-03-21T18:47:07.239Z,100894.69
2023-03-21T18:52:06.074Z,100884.09
2023-03-21T18:57:34.178Z,100891.91
2023-03-21T19:02:22.853Z,100893.50
2023-03-21T19:07:24.251Z,100894.34
2023-03-21T19:12:21.271Z,100899.53
2023-03-21T19:22:37.218Z,100892.66
2023-03-21T19:27:39.828Z,100864.03
2023-03-21T19:32:36.788Z,100774.78
2023-03-21T19:37:35.568Z,100870.59
2023-03-21T19:42:35.575Z,100779.75
2023-03-21T19:47:32.800Z,100827.09
2023-03-21T19:52:31.479Z,100845.88
2023-03-21T19:57:28.256Z,100875.34
2023-03-21T20:02:35.401Z,100864.28
2023-03-21T20:07:32.834Z,100870.47
2023-03-21T20:12:30.108Z,100909.88
2023-03-21T20:17:28.413Z,100891.41
2023-03-21T20:22:46.089Z,100912.19
2023-03-21T20:27:43.883Z,100898.47
2023-03-21T20:32:43.594Z,100912.75
2023-03-21T20:37:41.054Z,100913.22
2023-03-21T20:42:38.802Z,100877.75
2023-03-21T20:47:35.907Z,100917.28
2023-03-21T20:57:51.031Z,100851.38
2023-03-21T21:02:49.293Z,100907.59
2023-03-21T21:07:48.349Z,100924.72
2023-03-21T21:12:45.279Z,100937.09
2023-03-21T21:23:00.893Z,100933.88
2023-03-21T21:27:57.968Z,100936.31
2023-03-21T21:32:54.866Z,100924.84
2023-03-21T21:37:53.036Z,100941.94
2023-03-21T21:42:50.883Z,100952.69
2023-03-21T21:47:48.030Z,100906.16
2023-03-21T21:52:51.755Z,100976.94
2023-03-21T21:57:49.985Z,100979.03
2023-03-21T22:02:47.769Z,100988.53
2023-03-21T22:07:44.951Z,100971.97
2023-03-21T22:12:41.797Z,100989.22
2023-03-21T22:17:39.935Z,100959.00
2023-03-21T22:22:38.024Z,100981.94
2023-03-21T22:27:36.121Z,100990.63
2023-03-21T22:32:33.641Z,100969.22
2023-03-21T22:37:31.067Z,100972.25
2023-03-21T22:42:28.742Z,100994.28
2023-03-21T22:47:25.684Z,100978.84
2023-03-21T22:52:22.457Z,100955.13
2023-03-21T22:57:20.145Z,100923.72
2023-03-21T23:02:18.021Z,100918.97
2023-03-21T23:07:15.087Z,100896.69
2023-03-21T23:12:13.537Z,100926.88
2023-03-21T23:17:11.953Z,100955.88
2023-03-21T23:22:09.647Z,100950.44
2023-03-21T23:27:06.451Z,100942.09
2023-03-21T23:32:03.420Z,100936.41
2023-03-21T23:37:00.217Z,100958.66
2023-03-21T23:41:58.292Z,100918.88
2023-03-21T23:46:55.231Z,100951.41
2023-03-21T23:51:52.013Z,100950.16
2023-03-21T23:56:48.888Z,100951.09
